createdAt,value
2018-07-19T00:01:51.571Z,91.70
2018-07-19T00:04:19.656Z,91.70
2018-07-19T00:06:47.721Z,91.70
2018-07-19T00:11:43.658Z,91.90
2018-07-19T00:14:11.742Z,91.90
2018-07-19T00:16:39.818Z,91.90
2018-07-19T00:19:07.890Z,92.10
2018-07-19T00:21:35.955Z,92.30
2018-07-19T00:24:04.042Z,92.50
2018-07-19T00:26:32.159Z,92.50
2018-07-19T00:29:00.227Z,92.50
2018-07-19T00:31:28.381Z,92.50
2018-07-19T00:33:56.521Z,92.70
2018-07-19T00:36:24.545Z,92.90
2018-07-19T00:38:52.623Z,92.90
2018-07-19T00:41:20.785Z,93.10
2018-07-19T00:43:55.352Z,93.20
2018-07-19T00:46:23.458Z,93.30
2018-07-19T00:48:51.519Z,93.30
2018-07-19T00:51:19.623Z,93.40
2018-07-19T00:53:54.027Z,93.40
2018-07-19T00:56:22.112Z,93.30
2018-07-19T00:58:50.191Z,93.40
2018-07-19T01:01:18.304Z,93.60
2018-07-19T01:03:46.428Z,93.60
2018-07-19T01:06:14.512Z,93.60
2018-07-19T01:08:42.608Z,94.00
2018-07-19T01:11:10.679Z,94.00
2018-07-19T01:13:38.773Z,94.30
2018-07-19T01:16:06.859Z,94.40
2018-07-19T01:18:34.945Z,94.50
2018-07-19T01:21:03.029Z,94.50
2018-07-19T01:23:31.116Z,95.00
2018-07-19T01:25:59.199Z,94.50
2018-07-19T01:28:27.275Z,94.30
2018-07-19T01:30:55.351Z,94.30
2018-07-19T01:33:23.511Z,94.40
2018-07-19T01:35:51.611Z,94.50
2018-07-19T01:38:19.711Z,94.50
2018-07-19T01:40:47.793Z,94.80
2018-07-19T01:43:16.019Z,94.40
2018-07-19T01:45:58.950Z,94.30
2018-07-19T01:48:27.108Z,94.80
2018-07-19T01:50:55.277Z,94.90
2018-07-19T01:53:23.380Z,95.30
2018-07-19T01:55:51.537Z,95.30
2018-07-19T01:58:19.653Z,95.40
2018-07-19T02:00:47.752Z,95.60
2018-07-19T02:03:15.865Z,95.80
2018-07-19T02:05:43.955Z,95.70
2018-07-19T02:08:12.068Z,95.90
2018-07-19T02:10:40.188Z,96.00
2018-07-19T02:13:08.291Z,96.20
2018-07-19T02:15:36.425Z,96.40
2018-07-19T02:18:04.682Z,96.40
2018-07-19T02:20:32.779Z,96.60
2018-07-19T02:23:00.888Z,96.70
2018-07-19T02:25:28.996Z,96.90
2018-07-19T02:27:57.121Z,97.20
2018-07-19T02:30:25.215Z,97.40
2018-07-19T02:32:53.332Z,97.30
2018-07-19T02:35:21.418Z,97.30
2018-07-19T02:37:49.527Z,97.40
2018-07-19T02:40:17.630Z,97.80
2018-07-19T02:42:45.771Z,98.00
2018-07-19T02:45:13.900Z,98.10
2018-07-19T02:47:42.003Z,98.30
2018-07-19T02:50:10.111Z,98.10
2018-07-19T02:55:06.117Z,98.10
2018-07-19T02:57:34.226Z,98.10
2018-07-19T03:00:02.366Z,98.10
2018-07-19T03:02:30.484Z,98.70
2018-07-19T03:04:58.602Z,98.50
2018-07-19T03:07:26.704Z,98.50
2018-07-19T03:09:54.853Z,98.60
2018-07-19T03:12:22.951Z,98.70
2018-07-19T03:14:51.074Z,98.70
2018-07-19T03:17:19.174Z,98.80
2018-07-19T03:19:47.273Z,99.20
2018-07-19T03:22:15.380Z,99.50
2018-07-19T03:24:43.684Z,99.80
2018-07-19T03:27:11.775Z,99.80
2018-07-19T03:29:39.869Z,99.70
2018-07-19T03:32:07.954Z,99.80
2018-07-19T03:34:36.041Z,99.90
2018-07-19T03:37:04.123Z,99.90
2018-07-19T03:39:32.239Z,99.90
2018-07-19T03:42:00.314Z,99.90
2018-07-19T03:44:28.536Z,99.90
2018-07-19T03:46:56.635Z,99.90
2018-07-19T03:49:24.749Z,99.90
2018-07-19T03:51:52.859Z,99.90
2018-07-19T03:54:20.960Z,99.90
2018-07-19T03:56:49.047Z,99.90
2018-07-19T03:59:17.156Z,99.90
2018-07-19T04:01:45.257Z,99.90
2018-07-19T04:04:13.334Z,99.90
2018-07-19T04:06:41.474Z,99.90
2018-07-19T04:09:09.575Z,99.90
2018-07-19T04:11:37.681Z,99.90
2018-07-19T04:14:06.095Z,99.90
2018-07-19T04:16:34.210Z,99.90
2018-07-19T04:19:02.345Z,99.90
2018-07-19T04:21:30.506Z,99.90
2018-07-19T04:23:58.618Z,99.90
2018-07-19T04:26:26.769Z,99.90
2018-07-19T04:28:54.875Z,99.90
2018-07-19T04:31:22.993Z,99.90
2018-07-19T04:33:51.072Z,99.90
2018-07-19T04:36:19.178Z,99.90
2018-07-19T04:38:47.285Z,99.90
2018-07-19T04:41:15.451Z,99.90
2018-07-19T04:43:43.547Z,99.90
2018-07-19T04:46:11.642Z,99.90
2018-07-19T04:48:39.752Z,99.90
2018-07-19T04:51:07.888Z,99.90
2018-07-19T04:53:35.996Z,99.90
2018-07-19T04:56:04.098Z,99.90
2018-07-19T04:58:32.187Z,99.90
2018-07-19T05:01:00.290Z,99.90
2018-07-19T05:03:28.406Z,99.90
2018-07-19T05:05:56.513Z,99.90
2018-07-19T05:08:24.662Z,99.90
2018-07-19T05:10:52.765Z,99.90
2018-07-19T05:13:20.860Z,99.90
2018-07-19T05:15:48.980Z,99.90
2018-07-19T05:18:18.191Z,99.90
2018-07-19T05:20:46.289Z,99.90
2018-07-19T05:23:14.427Z,99.90
2018-07-19T05:25:42.458Z,99.90
2018-07-19T05:28:10.538Z,99.90
2018-07-19T05:30:38.639Z,99.90
2018-07-19T05:33:06.746Z,99.90
2018-07-19T05:35:34.850Z,99.90
2018-07-19T05:38:03.023Z,99.90
2018-07-19T05:40:31.142Z,99.90
2018-07-19T05:42:59.213Z,99.90
2018-07-19T05:45:27.320Z,99.90
2018-07-19T05:47:55.408Z,99.90
2018-07-19T05:50:23.533Z,99.90
2018-07-19T05:52:51.616Z,99.90
2018-07-19T05:55:19.713Z,99.80
2018-07-19T05:57:47.801Z,99.70
2018-07-19T06:00:15.923Z,99.60
2018-07-19T06:02:44.033Z,99.50
2018-07-19T06:05:12.184Z,99.60
2018-07-19T06:07:40.267Z,98.70
2018-07-19T06:10:08.342Z,98.40
2018-07-19T06:12:36.436Z,98.10
2018-07-19T06:15:05.193Z,98.00
2018-07-19T06:17:33.288Z,98.00
2018-07-19T06:20:01.380Z,97.60
2018-07-19T06:22:29.500Z,97.60
2018-07-19T06:24:57.603Z,97.30
2018-07-19T06:27:25.691Z,96.70
2018-07-19T06:29:53.793Z,96.20
2018-07-19T06:32:21.867Z,95.90
2018-07-19T06:34:49.956Z,95.40
2018-07-19T06:37:18.732Z,95.10
2018-07-19T06:39:46.823Z,95.20
2018-07-19T06:42:14.939Z,95.00
2018-07-19T06:44:43.025Z,95.00
2018-07-19T06:47:11.218Z,94.10
2018-07-19T06:49:39.308Z,94.10
2018-07-19T06:52:10.688Z,94.30
2018-07-19T06:54:39.499Z,94.10
2018-07-19T06:57:07.648Z,93.80
2018-07-19T06:59:35.729Z,93.70
2018-07-19T07:02:04.007Z,93.60
2018-07-19T07:04:32.085Z,93.40
2018-07-19T07:07:00.163Z,92.90
2018-07-19T07:09:28.255Z,93.00
2018-07-19T07:11:56.340Z,93.10
2018-07-19T07:14:24.432Z,93.00
2018-07-19T07:16:52.548Z,92.90
2018-07-19T07:19:20.642Z,93.40
2018-07-19T07:21:48.762Z,92.50
2018-07-19T07:24:16.878Z,92.60
2018-07-19T07:26:45.013Z,91.90
2018-07-19T07:29:13.136Z,91.60
2018-07-19T07:31:41.374Z,91.40
2018-07-19T07:34:09.473Z,91.40
2018-07-19T07:36:37.571Z,91.30
2018-07-19T07:39:07.972Z,91.10
2018-07-19T07:41:36.082Z,91.20
2018-07-19T07:44:04.243Z,91.00
2018-07-19T07:46:32.349Z,91.20
2018-07-19T07:49:00.438Z,91.10
2018-07-19T07:51:28.554Z,91.30
2018-07-19T07:53:56.685Z,91.10
2018-07-19T07:56:24.826Z,91.00
2018-07-19T07:58:52.926Z,90.30
2018-07-19T08:01:21.041Z,90.00
2018-07-19T08:03:49.134Z,90.60
2018-07-19T08:06:17.253Z,90.20
2018-07-19T08:08:45.367Z,90.60
2018-07-19T08:11:13.453Z,90.80
2018-07-19T08:13:41.567Z,89.60
2018-07-19T08:16:09.715Z,90.30
2018-07-19T08:18:37.817Z,89.70
2018-07-19T08:21:05.939Z,88.90
2018-07-19T08:23:34.065Z,88.70
2018-07-19T08:26:02.191Z,87.70
2018-07-19T08:28:30.299Z,87.30
2018-07-19T08:30:58.395Z,85.50
2018-07-19T08:33:26.516Z,85.70
2018-07-19T08:35:54.686Z,85.50
2018-07-19T08:38:22.734Z,85.30
2018-07-19T08:40:50.819Z,82.30
2018-07-19T08:43:18.957Z,81.10
2018-07-19T08:45:47.075Z,83.20
2018-07-19T08:48:15.226Z,83.60
2018-07-19T08:50:43.384Z,80.90
2018-07-19T08:53:11.512Z,79.20
2018-07-19T08:55:39.607Z,79.10
2018-07-19T08:58:07.728Z,79.70
2018-07-19T09:00:35.818Z,79.70
2018-07-19T09:03:03.976Z,79.80
2018-07-19T09:05:32.076Z,77.90
2018-07-19T09:08:00.200Z,78.50
2018-07-19T09:10:28.299Z,79.30
2018-07-19T09:12:56.403Z,76.30
2018-07-19T09:15:24.510Z,74.40
2018-07-19T09:17:52.639Z,74.70
2018-07-19T09:20:20.912Z,74.40
2018-07-19T09:22:49.071Z,73.70
2018-07-19T09:25:17.140Z,73.60
2018-07-19T09:27:47.268Z,73.00
2018-07-19T09:30:15.392Z,73.90
2018-07-19T09:32:43.537Z,73.00
2018-07-19T09:35:11.602Z,72.40
2018-07-19T09:37:39.695Z,73.10
2018-07-19T09:40:07.857Z,71.70
2018-07-19T09:42:35.955Z,72.50
2018-07-19T09:45:04.072Z,71.80
2018-07-19T09:47:32.199Z,72.80
2018-07-19T09:50:00.300Z,72.40
2018-07-19T09:52:28.412Z,71.10
2018-07-19T09:54:58.490Z,72.20
2018-07-19T09:57:27.567Z,71.50
2018-07-19T09:59:55.671Z,70.30
2018-07-19T10:02:24.027Z,69.90
2018-07-19T10:04:52.146Z,69.90
2018-07-19T10:07:20.589Z,70.60
2018-07-19T10:09:48.706Z,71.00
2018-07-19T10:12:16.896Z,69.70
2018-07-19T10:14:45.316Z,69.50
2018-07-19T10:17:13.411Z,69.30
2018-07-19T10:19:41.486Z,68.00
2018-07-19T10:22:09.557Z,68.40
2018-07-19T10:24:37.663Z,69.60
2018-07-19T10:27:05.768Z,70.00
2018-07-19T10:29:33.897Z,69.90
2018-07-19T10:32:02.055Z,71.10
2018-07-19T10:34:30.135Z,70.00
2018-07-19T10:36:58.165Z,69.40
2018-07-19T10:39:26.253Z,68.50
2018-07-19T10:41:54.331Z,68.60
2018-07-19T10:44:22.437Z,69.50
2018-07-19T10:46:50.531Z,69.10
2018-07-19T10:49:18.634Z,66.90
2018-07-19T10:51:46.739Z,68.10
2018-07-19T10:54:14.813Z,68.30
2018-07-19T10:56:42.891Z,69.00
2018-07-19T10:59:11.003Z,68.00
2018-07-19T11:01:39.095Z,68.50
2018-07-19T11:04:07.232Z,67.40
2018-07-19T11:06:35.310Z,67.90
2018-07-19T11:09:03.508Z,66.80
2018-07-19T11:11:31.604Z,67.20
2018-07-19T11:13:59.670Z,65.80
2018-07-19T11:16:27.804Z,66.00
2018-07-19T11:18:55.858Z,66.70
2018-07-19T11:21:23.953Z,66.50
2018-07-19T11:23:52.184Z,65.20
2018-07-19T11:26:20.287Z,65.70
2018-07-19T11:28:48.806Z,65.90
2018-07-19T11:31:17.268Z,65.60
2018-07-19T11:33:45.390Z,64.90
2018-07-19T11:36:13.490Z,65.00
2018-07-19T11:38:41.580Z,65.30
2018-07-19T11:41:09.698Z,64.70
2018-07-19T11:43:37.779Z,65.20
2018-07-19T11:46:05.979Z,64.80
2018-07-19T11:48:34.087Z,65.00
2018-07-19T11:51:02.226Z,64.30
2018-07-19T11:53:30.303Z,64.50
2018-07-19T11:55:58.401Z,62.30
2018-07-19T11:58:26.474Z,63.00
2018-07-19T12:00:54.578Z,63.10
2018-07-19T12:03:22.650Z,62.70
2018-07-19T12:05:50.735Z,63.60
2018-07-19T12:08:18.832Z,63.20
2018-07-19T12:10:46.914Z,63.90
2018-07-19T12:13:15.008Z,62.70
2018-07-19T12:15:43.143Z,63.20
2018-07-19T12:18:11.324Z,62.70
2018-07-19T12:20:39.359Z,63.00
2018-07-19T12:23:07.455Z,62.60
2018-07-19T12:25:35.630Z,62.50
2018-07-19T12:28:03.730Z,61.60
2018-07-19T12:30:31.870Z,61.60
2018-07-19T12:32:59.964Z,62.00
2018-07-19T12:35:28.071Z,62.40
2018-07-19T12:37:56.179Z,63.00
2018-07-19T12:40:25.116Z,63.30
2018-07-19T12:42:53.248Z,63.00
2018-07-19T12:45:21.356Z,62.90
2018-07-19T12:47:49.467Z,62.10
2018-07-19T12:50:17.550Z,62.10
2018-07-19T12:52:45.650Z,62.20
2018-07-19T12:55:13.759Z,61.00
2018-07-19T12:57:41.915Z,62.00
2018-07-19T13:00:10.067Z,61.90
2018-07-19T13:02:38.230Z,63.30
2018-07-19T13:05:06.338Z,62.60
2018-07-19T13:07:34.499Z,62.60
2018-07-19T13:10:02.600Z,62.00
2018-07-19T13:12:30.707Z,61.90
2018-07-19T13:14:58.831Z,61.80
2018-07-19T13:17:26.936Z,61.40
2018-07-19T13:19:55.026Z,61.50
2018-07-19T13:22:23.174Z,61.20
2018-07-19T13:24:51.307Z,61.70
2018-07-19T13:27:19.414Z,60.90
2018-07-19T13:29:47.505Z,61.20
2018-07-19T13:32:15.631Z,61.30
2018-07-19T13:34:43.774Z,60.20
2018-07-19T13:37:11.914Z,60.90
2018-07-19T13:39:40.072Z,60.60
2018-07-19T13:42:08.190Z,61.20
2018-07-19T13:44:36.302Z,59.60
2018-07-19T13:47:04.406Z,60.30
2018-07-19T13:49:32.523Z,59.90
2018-07-19T13:52:00.656Z,60.10
2018-07-19T13:54:40.055Z,59.40
2018-07-19T13:57:08.419Z,59.30
2018-07-19T13:59:36.584Z,59.40
2018-07-19T14:02:04.778Z,59.30
2018-07-19T14:04:32.868Z,59.70
2018-07-19T14:07:00.979Z,58.90
2018-07-19T14:09:29.085Z,58.00
2018-07-19T14:11:57.192Z,58.30
2018-07-19T14:14:25.323Z,58.70
2018-07-19T14:16:53.410Z,57.50
2018-07-19T14:19:21.688Z,57.10
2018-07-19T14:21:49.775Z,57.60
2018-07-19T14:24:17.861Z,57.70
2018-07-19T14:26:46.027Z,57.60
2018-07-19T14:29:14.114Z,57.50
2018-07-19T14:31:42.202Z,57.40
2018-07-19T14:34:10.315Z,58.40
2018-07-19T14:36:38.406Z,58.40
2018-07-19T14:39:08.591Z,58.20
2018-07-19T14:41:36.817Z,58.30
2018-07-19T14:44:05.347Z,57.70
2018-07-19T14:46:33.463Z,58.20
2018-07-19T14:49:01.563Z,58.20
2018-07-19T14:51:29.651Z,57.60
2018-07-19T14:53:57.741Z,58.40
2018-07-19T14:56:25.821Z,58.10
2018-07-19T14:58:53.972Z,57.90
2018-07-19T15:01:22.067Z,57.20
2018-07-19T15:03:50.171Z,57.50
2018-07-19T15:06:18.300Z,57.20
2018-07-19T15:08:46.375Z,57.40
2018-07-19T15:11:14.474Z,57.40
2018-07-19T15:13:42.559Z,56.50
2018-07-19T15:16:10.704Z,56.80
2018-07-19T15:18:38.784Z,56.90
2018-07-19T15:21:06.939Z,56.00
2018-07-19T15:23:35.038Z,56.30
2018-07-19T15:26:03.178Z,57.10
2018-07-19T15:28:31.270Z,56.30
2018-07-19T15:30:59.376Z,56.20
2018-07-19T15:33:27.478Z,56.30
2018-07-19T15:35:55.598Z,56.30
2018-07-19T15:38:23.694Z,56.40
2018-07-19T15:40:51.809Z,56.70
2018-07-19T15:43:19.908Z,56.70
2018-07-19T15:45:48.061Z,57.10
2018-07-19T15:48:16.184Z,56.30
2018-07-19T15:50:44.288Z,56.50
2018-07-19T15:53:12.389Z,56.20
2018-07-19T15:55:40.483Z,56.00
2018-07-19T15:58:08.575Z,56.20
2018-07-19T16:00:36.678Z,56.10
2018-07-19T16:03:04.840Z,56.60
2018-07-19T16:05:32.974Z,56.20
2018-07-19T16:08:01.101Z,56.60
2018-07-19T16:10:29.204Z,57.10
2018-07-19T16:12:57.307Z,56.80
2018-07-19T16:15:26.255Z,57.20
2018-07-19T16:17:54.359Z,57.90
2018-07-19T16:20:22.466Z,57.10
2018-07-19T16:22:52.778Z,57.50
2018-07-19T16:25:20.913Z,57.70
2018-07-19T16:27:49.005Z,59.60
2018-07-19T16:30:17.098Z,58.80
2018-07-19T16:32:45.234Z,59.20
2018-07-19T16:35:13.345Z,59.30
2018-07-19T16:37:41.520Z,59.80
2018-07-19T16:40:09.615Z,60.80
2018-07-19T16:42:37.727Z,59.80
2018-07-19T16:45:05.863Z,60.30
2018-07-19T16:47:33.985Z,59.90
2018-07-19T16:50:02.142Z,60.20
2018-07-19T16:52:30.290Z,60.20
2018-07-19T16:54:58.461Z,60.30
2018-07-19T16:57:26.593Z,60.90
2018-07-19T16:59:54.703Z,61.10
2018-07-19T17:02:22.846Z,61.00
2018-07-19T17:04:51.017Z,61.90
2018-07-19T17:07:19.144Z,61.40
2018-07-19T17:09:47.235Z,61.80
2018-07-19T17:12:15.343Z,62.30
2018-07-19T17:14:43.442Z,62.20
2018-07-19T17:17:11.586Z,61.50
2018-07-19T17:19:39.721Z,62.20
2018-07-19T17:22:07.970Z,62.50
2018-07-19T17:24:36.069Z,63.10
2018-07-19T17:27:04.291Z,63.00
2018-07-19T17:29:32.379Z,63.40
2018-07-19T17:32:00.505Z,63.80
2018-07-19T17:34:28.615Z,63.80
2018-07-19T17:36:56.700Z,63.60
2018-07-19T17:39:24.773Z,63.60
2018-07-19T17:41:52.862Z,63.80
2018-07-19T17:44:20.999Z,63.90
2018-07-19T17:46:49.082Z,64.20
2018-07-19T17:49:17.214Z,64.30
2018-07-19T17:51:45.414Z,63.80
2018-07-19T17:54:13.596Z,63.90
2018-07-19T17:56:41.751Z,64.10
2018-07-19T17:59:09.806Z,64.50
2018-07-19T18:01:37.907Z,64.20
2018-07-19T18:04:05.991Z,64.40
2018-07-19T18:06:34.071Z,64.20
2018-07-19T18:09:02.226Z,64.80
2018-07-19T18:11:30.311Z,65.00
2018-07-19T18:13:58.397Z,64.70
2018-07-19T18:16:26.546Z,64.80
2018-07-19T18:18:54.678Z,64.90
2018-07-19T18:21:22.795Z,65.10
2018-07-19T18:23:50.894Z,65.20
2018-07-19T18:26:19.008Z,65.60
2018-07-19T18:28:47.101Z,66.20
2018-07-19T18:31:15.173Z,66.00
2018-07-19T18:33:43.259Z,66.20
2018-07-19T18:36:11.336Z,66.50
2018-07-19T18:38:39.417Z,66.80
2018-07-19T18:41:07.521Z,67.00
2018-07-19T18:43:35.606Z,67.10
2018-07-19T18:46:03.704Z,67.40
2018-07-19T18:48:33.279Z,67.70
2018-07-19T18:51:01.691Z,68.00
2018-07-19T18:53:29.827Z,68.20
2018-07-19T18:55:57.976Z,68.70
2018-07-19T18:58:26.266Z,68.30
2018-07-19T19:00:54.389Z,68.80
2018-07-19T19:03:23.130Z,68.80
2018-07-19T19:05:51.223Z,68.70
2018-07-19T19:08:19.314Z,69.10
2018-07-19T19:10:47.398Z,69.30
2018-07-19T19:13:15.495Z,70.00
2018-07-19T19:15:43.670Z,69.90
2018-07-19T19:18:11.782Z,70.00
2018-07-19T19:20:39.883Z,70.60
2018-07-19T19:23:07.982Z,70.40
2018-07-19T19:25:36.206Z,70.50
2018-07-19T19:28:04.286Z,70.50
2018-07-19T19:30:32.385Z,70.80
2018-07-19T19:35:28.375Z,71.70
2018-07-19T19:37:56.479Z,72.20
2018-07-19T19:40:24.647Z,72.40
2018-07-19T19:42:52.701Z,72.50
2018-07-19T19:45:20.822Z,72.40
2018-07-19T19:47:48.983Z,72.50
2018-07-19T19:50:17.076Z,72.80
2018-07-19T19:52:45.192Z,73.20
2018-07-19T19:55:13.304Z,73.50
2018-07-19T19:57:41.415Z,73.90
2018-07-19T20:00:10.962Z,73.90
2018-07-19T20:02:39.051Z,75.00
2018-07-19T20:05:07.223Z,75.80
2018-07-19T20:07:35.739Z,77.60
2018-07-19T20:10:04.284Z,77.70
2018-07-19T20:12:32.360Z,78.60
2018-07-19T20:15:00.455Z,79.80
2018-07-19T20:17:28.560Z,80.70
2018-07-19T20:19:56.638Z,81.20
2018-07-19T20:22:24.778Z,82.70
2018-07-19T20:24:52.898Z,83.50
2018-07-19T20:27:20.991Z,83.90
2018-07-19T20:29:49.076Z,84.20
2018-07-19T20:33:20.715Z,84.50
2018-07-19T20:35:48.795Z,86.00
2018-07-19T20:38:16.940Z,86.00
2018-07-19T20:40:45.068Z,86.20
2018-07-19T20:43:13.144Z,85.90
2018-07-19T20:45:41.292Z,85.30
2018-07-19T20:48:09.404Z,85.70
2018-07-19T20:50:37.524Z,85.90
2018-07-19T20:53:06.569Z,86.00
2018-07-19T20:55:41.329Z,86.00
2018-07-19T20:58:09.394Z,86.40
2018-07-19T21:00:37.499Z,86.50
2018-07-19T21:03:05.612Z,86.60
2018-07-19T21:05:33.702Z,87.00
2018-07-19T21:08:01.769Z,87.00
2018-07-19T21:10:29.875Z,86.80
2018-07-19T21:12:58.027Z,86.60
2018-07-19T21:15:26.745Z,86.50
2018-07-19T21:17:54.862Z,86.30
2018-07-19T21:20:22.974Z,86.40
2018-07-19T21:22:51.233Z,87.40
2018-07-19T21:25:19.318Z,86.50
2018-07-19T21:27:47.521Z,86.60
2018-07-19T21:30:15.616Z,86.90
2018-07-19T21:32:43.707Z,87.20
2018-07-19T21:35:11.844Z,87.50
2018-07-19T21:37:39.974Z,87.60
2018-07-19T21:40:08.072Z,87.70
2018-07-19T21:42:36.203Z,88.10
2018-07-19T21:45:04.828Z,89.00
2018-07-19T21:47:32.926Z,89.80
2018-07-19T21:50:01.047Z,89.40
2018-07-19T21:52:29.171Z,90.10
2018-07-19T21:54:57.257Z,90.50
2018-07-19T21:57:25.377Z,90.70
2018-07-19T21:59:53.477Z,91.00
2018-07-19T22:02:21.591Z,91.20
2018-07-19T22:04:49.775Z,91.10
2018-07-19T22:07:17.900Z,91.10
2018-07-19T22:09:46.004Z,91.40
2018-07-19T22:12:14.110Z,91.10
2018-07-19T22:14:42.236Z,91.00
2018-07-19T22:17:10.516Z,91.10
2018-07-19T22:19:38.582Z,91.30
2018-07-19T22:22:06.750Z,91.40
2018-07-19T22:24:34.862Z,91.50
2018-07-19T22:27:02.974Z,91.70
2018-07-19T22:29:31.773Z,92.10
2018-07-19T22:31:59.893Z,92.40
2018-07-19T22:34:28.009Z,92.90
2018-07-19T22:36:56.203Z,92.70
2018-07-19T22:39:26.119Z,92.80
2018-07-19T22:41:54.292Z,92.70
2018-07-19T22:44:22.410Z,92.80
2018-07-19T22:46:50.504Z,92.70
2018-07-19T22:49:18.601Z,92.80
2018-07-19T22:55:18.127Z,92.80
2018-07-19T22:57:46.206Z,93.00
2018-07-19T23:00:14.283Z,93.00
2018-07-19T23:02:42.384Z,93.20
2018-07-19T23:05:10.489Z,93.30
2018-07-19T23:07:38.667Z,93.60
2018-07-19T23:10:06.771Z,93.70
2018-07-19T23:12:34.875Z,93.90
2018-07-19T23:15:03.064Z,93.90
2018-07-19T23:17:31.386Z,93.90
2018-07-19T23:19:59.509Z,93.80
2018-07-19T23:22:27.622Z,93.70
2018-07-19T23:24:55.719Z,93.70
2018-07-19T23:27:23.822Z,93.70
2018-07-19T23:29:51.923Z,93.80
2018-07-19T23:32:20.007Z,93.90
2018-07-19T23:34:48.581Z,94.20
2018-07-19T23:37:19.925Z,94.40
2018-07-19T23:39:51.386Z,94.40
2018-07-19T23:42:23.678Z,94.40
2018-07-19T23:45:01.046Z,94.50
2018-07-19T23:47:32.107Z,94.50
2018-07-19T23:50:00.215Z,94.60
2018-07-19T23:52:28.380Z,94.90
2018-07-19T23:54:56.424Z,94.90
2018-07-19T23:57:24.518Z,95.00
2018-07-19T23:59:52.631Z,95.10
